Ellenburg Depot, New York
Current Conditions -  °F | °C
As of 10:53 AM on Wednesday 22 Oct 2014 (Local Time) from KPBG Reporting Station
Overcast Overcast  
Wind Chill: 36°   Ceiling: 900
Heat Index: 44°   Visibility: 10mi
Dew Point: 42°   Wind: 17mph
Humidity: 93%   Direction: 360°N
Pressure: 30.23"   Gusts: NA
Location:  44.91°N, 73.8°W
Report Text: KPBG 221453Z AUTO 36015KT 10SM OVC009 07/06 A3023 RMK AO2 SLP238 T00670056 51014
Loading
Personal Weather Stations






























Interactive Weather Map New forecast layout! Learn more

10-Day Weather Forecast

Advertisements
Track Severe Weather on mobile